Big Bear Station Historical Data
Daily Summary for April 8, 2019 Units:  English    Metric   Both
Next Day »
Daily Weekly Monthly Yearly Custom
  High: Low: Average:
Temperature: 72.7 °F 33.8 °F 51.4 °F
Dew Point: 39.4 °F 26.2 °F 32.5 °F
Humidity: 86% 18% 55%
Wind Speed: 4.7mph 0.0mph 0.9mph
Wind Gust: -999.0mph - -
Wind- - West
Pressure: 23.71 in 23.62 in -
Precipitation: 0.00 in    
Historical Graphs
 
 
Tabular Data for April 8, 2019
Time Temperature Dew Point Pressure Wind Wind Speed Wind Gust Humidity Rainfall Rate (Hourly)
00:13 38.5 °F 29.9 °F 23.71 in Calm   -999.0 mph 71% 0.00 in
00:28 37.8 °F 27.5 °F 23.71 in Calm   -999.0 mph 66% 0.00 in
00:44 37.4 °F 28.5 °F 23.70 in Calm   -999.0 mph 70% 0.00 in
00:59 37.0 °F 27.1 °F 23.70 in Calm   -999.0 mph 67% 0.00 in
01:14 36.9 °F 26.2 °F 23.70 in Calm   -999.0 mph 65% 0.00 in
01:29 36.5 °F 28.7 °F 23.70 in Calm   -999.0 mph 73% 0.00 in
01:44 36.5 °F 30.6 °F 23.69 in Calm   -999.0 mph 79% 0.00 in
02:00 36.3 °F 31.6 °F 23.69 in Calm   -999.0 mph 83% 0.00 in
02:15 36.0 °F 31.3 °F 23.70 in Calm   -999.0 mph 83% 0.00 in
02:30 35.8 °F 29.6 °F 23.69 in Calm   -999.0 mph 78% 0.00 in
02:45 35.8 °F 29.0 °F 23.68 in Calm   -999.0 mph 76% 0.00 in
03:00 35.8 °F 28.3 °F 23.68 in Calm   -999.0 mph 74% 0.00 in
03:16 35.8 °F 27.7 °F 23.68 in Calm   -999.0 mph 72% 0.00 in
03:31 35.2 °F 27.7 °F 23.68 in Calm   -999.0 mph 74% 0.00 in
03:46 35.1 °F 27.3 °F 23.68 in Calm   -999.0 mph 73% 0.00 in
04:16 35.1 °F 28.6 °F 23.67 in Calm   -999.0 mph 77% 0.00 in
04:32 34.7 °F 30.1 °F 23.67 in Calm   -999.0 mph 83% 0.00 in
04:47 34.7 °F 30.4 °F 23.67 in Calm   -999.0 mph 84% 0.00 in
05:02 34.5 °F 30.2 °F 23.67 in Calm   -999.0 mph 84% 0.00 in
05:17 34.5 °F 29.9 °F 23.68 in Calm   -999.0 mph 83% 0.00 in
05:33 34.5 °F 28.7 °F 23.68 in Calm   -999.0 mph 79% 0.00 in
05:48 34.2 °F 29.0 °F 23.68 in Calm   -999.0 mph 81% 0.00 in
06:03 34.3 °F 29.1 °F 23.68 in Calm   -999.0 mph 81% 0.00 in
06:18 33.8 °F 28.9 °F 23.68 in Calm   -999.0 mph 82% 0.00 in
06:33 34.2 °F 29.0 °F 23.68 in Calm   -999.0 mph 81% 0.00 in
06:49 34.0 °F 29.4 °F 23.68 in Calm   -999.0 mph 83% 0.00 in
07:04 34.0 °F 30.3 °F 23.69 in Calm   -999.0 mph 86% 0.00 in
07:19 35.2 °F 31.4 °F 23.69 in Calm   -999.0 mph 86% 0.00 in
07:35 34.7 °F 30.9 °F 23.69 in Calm   -999.0 mph 86% 0.00 in
07:50 34.9 °F 30.6 °F 23.69 in Calm   -999.0 mph 84% 0.00 in
08:05 36.0 °F 31.6 °F 23.69 in Calm   -999.0 mph 84% 0.00 in
08:20 37.0 °F 32.6 °F 23.69 in Calm   -999.0 mph 84% 0.00 in
08:36 39.0 °F 34.6 °F 23.69 in Calm   -999.0 mph 84% 0.00 in
08:51 42.1 °F 35.7 °F 23.69 in Calm   -999.0 mph 78% 0.00 in
09:06 44.4 °F 33.4 °F 23.68 in Calm   -999.0 mph 65% 0.00 in
09:21 46.9 °F 36.5 °F 23.68 in Calm   -999.0 mph 67% 0.00 in
09:36 48.4 °F 36.0 °F 23.68 in Calm   -999.0 mph 62% 0.00 in
09:52 51.8 °F 36.1 °F 23.69 in Calm   -999.0 mph 55% 0.00 in
10:07 55.8 °F 30.6 °F 23.69 in Calm   -999.0 mph 38% 0.00 in
10:22 60.4 °F 29.6 °F 23.69 in NNW 4.2 mph -999.0 mph 31% 0.00 in
10:37 64.9 °F 28.2 °F 23.69 in NW 4.2 mph -999.0 mph 25% 0.00 in
10:53 63.9 °F 27.4 °F 23.69 in NW 3.2 mph -999.0 mph 25% 0.00 in
11:08 64.8 °F 32.6 °F 23.69 in NW 2.7 mph -999.0 mph 30% 0.00 in
11:23 65.8 °F 31.8 °F 23.69 in NNE 4.2 mph -999.0 mph 28% 0.00 in
11:38 66.7 °F 31.7 °F 23.69 in NW 4.7 mph -999.0 mph 27% 0.00 in
11:53 68.5 °F 29.2 °F 23.68 in North 4.2 mph -999.0 mph 23% 0.00 in
12:09 70.0 °F 32.6 °F 23.68 in NNW 4.7 mph -999.0 mph 25% 0.00 in
12:24 69.8 °F 29.2 °F 23.68 in NNW 3.2 mph -999.0 mph 22% 0.00 in
12:39 72.0 °F 32.2 °F 23.68 in NNW 2.7 mph -999.0 mph 23% 0.00 in
12:54 72.3 °F 27.7 °F 23.68 in WNW 3.2 mph -999.0 mph 19% 0.00 in
13:09 72.3 °F 26.4 °F 23.68 in Calm   -999.0 mph 18% 0.00 in
13:26 71.6 °F 28.4 °F 23.67 in South 2.7 mph -999.0 mph 20% 0.00 in
13:41 72.5 °F 31.5 °F 23.66 in WSW 2.2 mph -999.0 mph 22% 0.00 in
13:56 72.7 °F 31.7 °F 23.66 in NW 3.2 mph -999.0 mph 22% 0.00 in
14:11 71.6 °F 29.6 °F 23.66 in NNW 2.7 mph -999.0 mph 21% 0.00 in
14:27 72.0 °F 31.1 °F 23.66 in Calm   -999.0 mph 22% 0.00 in
14:42 71.6 °F 33.9 °F 23.66 in North 2.7 mph -999.0 mph 25% 0.00 in
14:57 70.3 °F 32.8 °F 23.66 in Calm   -999.0 mph 25% 0.00 in
15:12 70.7 °F 32.1 °F 23.66 in NW 4.2 mph -999.0 mph 24% 0.00 in
15:27 69.4 °F 34.9 °F 23.65 in WNW 4.7 mph -999.0 mph 28% 0.00 in
15:43 69.8 °F 37.0 °F 23.65 in WNW 4.2 mph -999.0 mph 30% 0.00 in
15:58 67.8 °F 34.4 °F 23.65 in NNW 4.2 mph -999.0 mph 29% 0.00 in
16:13 68.2 °F 32.0 °F 23.65 in South 2.2 mph -999.0 mph 26% 0.00 in
16:28 69.3 °F 36.5 °F 23.64 in Calm   -999.0 mph 30% 0.00 in
16:44 68.9 °F 34.4 °F 23.64 in Calm   -999.0 mph 28% 0.00 in
16:59 69.1 °F 33.7 °F 23.64 in Calm   -999.0 mph 27% 0.00 in
17:14 68.4 °F 34.9 °F 23.64 in West 2.2 mph -999.0 mph 29% 0.00 in
17:29 66.7 °F 35.1 °F 23.64 in Calm   -999.0 mph 31% 0.00 in
17:44 67.3 °F 35.6 °F 23.64 in NNE 2.2 mph -999.0 mph 31% 0.00 in
18:00 65.7 °F 35.0 °F 23.64 in Calm   -999.0 mph 32% 0.00 in
18:15 62.6 °F 34.6 °F 23.64 in Calm   -999.0 mph 35% 0.00 in
18:30 60.3 °F 35.9 °F 23.64 in Calm   -999.0 mph 40% 0.00 in
18:45 58.6 °F 36.7 °F 23.63 in Calm   -999.0 mph 44% 0.00 in
19:00 57.2 °F 38.2 °F 23.63 in Calm   -999.0 mph 49% 0.00 in
19:16 55.8 °F 37.9 °F 23.63 in Calm   -999.0 mph 51% 0.00 in
19:31 54.5 °F 37.7 °F 23.64 in Calm   -999.0 mph 53% 0.00 in
19:46 54.1 °F 37.8 °F 23.64 in NNW 1.1 mph -999.0 mph 54% 0.00 in
20:01 54.3 °F 39.4 °F 23.64 in Calm   -999.0 mph 57% 0.00 in
20:16 54.0 °F 39.1 °F 23.64 in SSW 2.7 mph -999.0 mph 57% 0.00 in
20:32 53.2 °F 37.0 °F 23.64 in Calm   -999.0 mph 54% 0.00 in
20:47 52.3 °F 37.1 °F 23.64 in Calm   -999.0 mph 56% 0.00 in
21:02 51.3 °F 37.0 °F 23.65 in Calm   -999.0 mph 58% 0.00 in
21:17 50.4 °F 36.6 °F 23.64 in Calm   -999.0 mph 59% 0.00 in
21:33 48.9 °F 36.9 °F 23.64 in Calm   -999.0 mph 63% 0.00 in
21:48 48.4 °F 36.8 °F 23.64 in Calm   -999.0 mph 64% 0.00 in
22:03 47.1 °F 36.3 °F 23.64 in Calm   -999.0 mph 66% 0.00 in
22:18 46.6 °F 36.2 °F 23.64 in Calm   -999.0 mph 67% 0.00 in
22:33 45.7 °F 35.7 °F 23.64 in Calm   -999.0 mph 68% 0.00 in
22:49 45.1 °F 36.3 °F 23.64 in Calm   -999.0 mph 71% 0.00 in
23:04 44.4 °F 35.2 °F 23.63 in Calm   -999.0 mph 70% 0.00 in
23:19 44.1 °F 36.0 °F 23.62 in Calm   -999.0 mph 73% 0.00 in
23:34 43.7 °F 36.0 °F 23.62 in Calm   -999.0 mph 74% 0.00 in
23:49 43.2 °F 36.8 °F 23.62 in Calm   -999.0 mph 78% 0.00 in
Big Bear CA Weather